Time;durP1;ratioP1;P1;durP2;ratioP2;P2;SDS_P1;SDS_P2;PMS_P1;PMS_P2;Temp;Humidity;BMP_temperature;BMP_pressure;BME280_temperature;BME280_humidity;BME280_pressure;Samples;Min_cycle;Max_cycle;Signal;HPM_P1;HPM_P2
2021/04/19 00:01:14;;;;;;;10.75;7.40;;;11.30;90.00;;;;;;4979637;28;20455;-75
2021/04/19 00:03:42;;;;;;;9.77;7.22;;;11.30;89.80;;;;;;4977824;28;20096;-75
2021/04/19 00:06:11;;;;;;;9.70;7.25;;;11.10;90.20;;;;;;4980654;28;20522;-75
2021/04/19 00:08:39;;;;;;;10.77;8.07;;;11.20;90.30;;;;;;4994330;28;20046;-75
2021/04/19 00:11:08;;;;;;;7.93;6.53;;;11.30;90.20;;;;;;4954999;28;20053;-74
2021/04/19 00:13:37;;;;;;;8.82;7.07;;;11.30;90.00;;;;;;4996068;28;20046;-74
2021/04/19 00:16:06;;;;;;;8.00;6.82;;;11.30;89.90;;;;;;4982396;28;20134;-75
2021/04/19 00:18:34;;;;;;;8.65;6.80;;;11.20;89.90;;;;;;5001039;28;20095;-74
2021/04/19 00:21:04;;;;;;;8.55;6.68;;;11.20;90.20;;;;;;4965768;28;20144;-74
2021/04/19 00:23:32;;;;;;;7.40;6.30;;;11.30;90.00;;;;;;4979712;28;20437;-74
2021/04/19 00:26:00;;;;;;;8.43;6.63;;;11.30;89.70;;;;;;4980660;28;20062;-74
2021/04/19 00:28:29;;;;;;;9.27;6.80;;;11.40;89.70;;;;;;4976393;28;20488;-75
2021/04/19 00:30:58;;;;;;;10.77;6.90;;;11.30;89.60;;;;;;4976492;28;20124;-75
2021/04/19 00:33:26;;;;;;;9.60;6.60;;;11.10;89.90;;;;;;5000536;28;20249;-74
2021/04/19 00:35:54;;;;;;;8.65;7.05;;;11.00;90.10;;;;;;4966966;28;20104;-75
2021/04/19 00:38:23;;;;;;;7.45;6.38;;;10.90;90.70;;;;;;4982119;28;20080;-75
2021/04/19 00:40:53;;;;;;;8.18;5.88;;;10.70;91.30;;;;;;4979663;28;20275;-75
2021/04/19 00:43:22;;;;;;;8.85;6.28;;;10.80;91.60;;;;;;4959714;28;20209;-75
2021/04/19 00:45:51;;;;;;;7.43;6.32;;;10.80;91.70;;;;;;4980276;28;20046;-75
2021/04/19 00:48:20;;;;;;;9.02;6.70;;;10.90;91.70;;;;;;4992676;28;20160;-75
2021/04/19 00:50:49;;;;;;;9.98;7.13;;;10.90;91.70;;;;;;4996400;28;20064;-75
2021/04/19 00:53:17;;;;;;;9.20;6.93;;;10.90;91.70;;;;;;4979290;28;20046;-75
2021/04/19 00:55:46;;;;;;;7.07;5.80;;;11.00;91.30;;;;;;4963349;28;20058;-74
2021/04/19 00:58:15;;;;;;;9.45;6.28;;;11.00;91.10;;;;;;4980226;28;20046;-75
2021/04/19 01:00:43;;;;;;;7.35;5.88;;;11.00;91.00;;;;;;4981216;23;20059;-75
2021/04/19 01:03:11;;;;;;;7.47;6.38;;;11.10;90.80;;;;;;4958210;28;20035;-75
2021/04/19 01:05:42;;;;;;;7.60;6.38;;;11.10;90.60;;;;;;4923185;29;20102;-75
2021/04/19 01:08:10;;;;;;;6.93;6.07;;;11.10;90.60;;;;;;4942613;28;20039;-75
2021/04/19 01:10:39;;;;;;;7.43;6.25;;;11.10;90.50;;;;;;4937694;28;20039;-75
2021/04/19 01:13:09;;;;;;;8.70;6.75;;;11.10;90.50;;;;;;4926208;29;20071;-75
2021/04/19 01:15:37;;;;;;;8.45;6.10;;;11.10;90.30;;;;;;4922222;29;20047;-74
2021/04/19 01:18:07;;;;;;;7.47;6.10;;;11.20;90.20;;;;;;4911209;28;20039;-75
2021/04/19 01:20:39;;;;;;;8.43;6.13;;;11.10;90.50;;;;;;4945525;28;20443;-75
2021/04/19 01:23:08;;;;;;;7.82;6.70;;;11.20;90.50;;;;;;4921625;29;20054;-75
2021/04/19 01:25:37;;;;;;;8.20;6.32;;;11.10;90.30;;;;;;4941255;28;20049;-75
2021/04/19 01:28:08;;;;;;;7.68;5.55;;;11.10;90.70;;;;;;4908551;28;20533;-75
2021/04/19 01:30:38;;;;;;;7.78;6.60;;;11.10;90.80;;;;;;4929275;28;20516;-75
2021/04/19 01:33:07;;;;;;;8.80;6.70;;;11.10;90.70;;;;;;4941101;29;20040;-76
2021/04/19 01:35:36;;;;;;;7.18;6.30;;;11.10;90.50;;;;;;4936933;28;20043;-75
2021/04/19 01:38:06;;;;;;;8.50;6.30;;;11.10;90.30;;;;;;4942660;28;20051;-75
2021/04/19 01:40:35;;;;;;;9.30;7.05;;;11.00;90.50;;;;;;4942545;28;20048;-75
2021/04/19 01:43:03;;;;;;;6.90;6.10;;;10.90;90.70;;;;;;4943538;28;20070;-75
2021/04/19 01:45:44;;;;;;;8.38;6.25;;;10.70;91.30;;;;;;4928416;28;20434;-75
2021/04/19 01:48:13;;;;;;;7.93;6.53;;;10.60;91.80;;;;;;4903480;29;20059;-75
2021/04/19 01:50:43;;;;;;;7.25;6.03;;;10.60;92.00;;;;;;4939358;28;20048;-75
2021/04/19 01:53:15;;;;;;;9.23;6.88;;;10.60;92.00;;;;;;4937827;28;20070;-75
2021/04/19 01:55:44;;;;;;;7.07;6.32;;;10.70;92.10;;;;;;4946351;28;20701;-75
2021/04/19 01:58:17;;;;;;;8.25;6.53;;;10.60;92.10;;;;;;4942954;28;20039;-75
2021/04/19 02:00:51;;;;;;;7.78;6.47;;;10.40;93.00;;;;;;4925772;29;20071;-75
2021/04/19 02:03:49;;;;;;;8.40;5.93;;;10.50;92.90;;;;;;4902673;29;20061;-75
2021/04/19 02:06:33;;;;;;;7.45;5.82;;;10.40;93.70;;;;;;4928989;29;20537;-75
2021/04/19 02:09:14;;;;;;;9.70;5.80;;;10.50;93.60;;;;;;4930852;29;20043;-76
2021/04/19 02:11:52;;;;;;;6.40;5.55;;;10.50;93.40;;;;;;4907219;29;20056;-75
2021/04/19 02:14:30;;;;;;;6.65;5.55;;;10.60;93.20;;;;;;4935914;29;20173;-75
2021/04/19 02:17:06;;;;;;;6.53;5.50;;;10.50;92.80;;;;;;4912875;29;20075;-75
2021/04/19 02:19:40;;;;;;;8.82;6.03;;;10.50;92.70;;;;;;4937890;29;20418;-75
2021/04/19 02:22:14;;;;;;;7.70;6.13;;;10.60;92.40;;;;;;4928884;29;20134;-74
2021/04/19 02:24:46;;;;;;;8.18;6.00;;;10.50;92.20;;;;;;4926254;29;20651;-74
2021/04/19 02:27:22;;;;;;;8.13;6.40;;;10.40;92.30;;;;;;4901298;29;20112;-74
2021/04/19 02:30:00;;;;;;;15.70;8.10;;;10.30;92.40;;;;;;4910260;29;20031;-75
2021/04/19 02:32:34;;;;;;;9.68;7.25;;;10.40;92.30;;;;;;4902891;29;20199;-75
2021/04/19 02:35:09;;;;;;;6.43;5.53;;;10.50;92.30;;;;;;4921317;29;20043;-75
2021/04/19 02:37:47;;;;;;;8.27;6.15;;;10.50;91.90;;;;;;4901645;29;20260;-75
2021/04/19 02:40:17;;;;;;;7.32;5.68;;;10.50;91.70;;;;;;4942171;29;20050;-75
2021/04/19 02:42:49;;;;;;;7.07;5.72;;;10.50;91.80;;;;;;4913659;28;20047;-73
2021/04/19 02:45:20;;;;;;;5.85;5.00;;;10.40;92.30;;;;;;4896364;29;20066;-74
2021/04/19 02:48:12;;;;;;;6.57;5.43;;;10.50;92.40;;;;;;4920016;29;20048;-74
2021/04/19 02:50:57;;;;;;;8.35;5.68;;;10.40;93.40;;;;;;4899817;29;20058;-74
2021/04/19 02:53:26;;;;;;;7.25;5.53;;;10.40;93.70;;;;;;4930246;29;20082;-75
2021/04/19 02:55:56;;;;;;;7.68;5.55;;;10.40;94.10;;;;;;4913263;29;20090;-75
2021/04/19 02:58:38;;;;;;;6.53;5.50;;;10.30;94.20;;;;;;4901523;29;20055;-75
2021/04/19 03:01:09;;;;;;;6.43;5.43;;;10.30;94.70;;;;;;4918417;29;20047;-75
2021/04/19 03:03:44;;;;;;;6.95;6.00;;;10.30;94.60;;;;;;4941983;28;20074;-75
2021/04/19 03:06:16;;;;;;;6.40;5.50;;;10.30;94.30;;;;;;4942891;28;20054;-75
2021/04/19 03:08:49;;;;;;;7.82;6.25;;;10.30;93.50;;;;;;4943555;28;20509;-75
2021/04/19 03:11:24;;;;;;;6.50;5.30;;;10.00;93.30;;;;;;4927826;29;20381;-74
2021/04/19 03:13:54;;;;;;;8.30;5.93;;;10.00;93.60;;;;;;4936017;28;20141;-75
2021/04/19 03:16:35;;;;;;;7.45;5.97;;;10.00;93.40;;;;;;4940645;28;20053;-74
2021/04/19 03:19:09;;;;;;;9.27;6.22;;;10.00;93.40;;;;;;4938684;28;20077;-74
2021/04/19 03:21:40;;;;;;;8.45;6.30;;;10.00;93.50;;;;;;4939793;28;20044;-75
2021/04/19 03:24:18;;;;;;;7.75;6.03;;;10.00;93.50;;;;;;4929482;29;20071;-75
2021/04/19 03:26:58;;;;;;;7.78;6.43;;;10.10;93.40;;;;;;4928864;29;20066;-74
2021/04/19 03:29:30;;;;;;;8.88;6.75;;;10.10;93.50;;;;;;4925346;28;20106;-75
2021/04/19 03:32:24;;;;;;;10.55;5.88;;;10.00;93.40;;;;;;4936661;28;20105;-75
2021/04/19 03:35:04;;;;;;;7.95;6.70;;;9.70;94.30;;;;;;4932909;28;20047;-75
2021/04/19 03:37:35;;;;;;;8.57;6.07;;;9.50;95.50;;;;;;4942436;28;20050;-74
2021/04/19 03:40:08;;;;;;;9.52;6.85;;;9.50;95.80;;;;;;4939715;28;20052;-74
2021/04/19 03:42:40;;;;;;;7.00;5.72;;;9.50;95.80;;;;;;4925049;29;20056;-74
2021/04/19 03:45:14;;;;;;;;;;;9.60;95.30;;;;;;4943908;28;20121;-75
2021/04/19 03:48:07;;;;;;;6.60;5.30;;;9.80;95.10;;;;;;4944572;28;19927;-75
2021/04/19 03:50:55;;;;;;;8.45;6.13;;;9.80;94.90;;;;;;4941229;28;20500;-75
2021/04/19 03:53:26;;;;;;;6.82;5.25;;;9.70;94.90;;;;;;4936719;28;20102;-74
2021/04/19 03:55:58;;;;;;;8.40;5.88;;;9.70;94.90;;;;;;4941478;28;20055;-74
2021/04/19 03:58:31;;;;;;;7.22;6.20;;;9.60;95.00;;;;;;4943996;28;20126;-75
2021/04/19 04:01:04;;;;;;;7.10;6.10;;;9.50;95.10;;;;;;4924645;29;20110;-75
2021/04/19 04:03:52;;;;;;;7.60;6.35;;;9.30;96.00;;;;;;4926372;28;20139;-75
2021/04/19 04:06:25;;;;;;;11.43;6.63;;;9.30;96.30;;;;;;4931535;29;20047;-74
2021/04/19 04:08:56;;;;;;;9.93;6.07;;;9.40;96.10;;;;;;4909770;29;20040;-74
2021/04/19 04:11:25;;;;;;;8.93;5.53;;;9.40;95.90;;;;;;4913214;29;20160;-75
2021/04/19 04:14:20;;;;;;;8.50;5.88;;;9.40;95.70;;;;;;4915502;29;20051;-75
2021/04/19 04:16:48;;;;;;;7.35;5.35;;;9.20;96.10;;;;;;4926401;29;20051;-75
2021/04/19 04:19:22;;;;;;;8.55;5.93;;;9.10;96.50;;;;;;4926112;29;20206;-75
2021/04/19 04:22:02;;;;;;;6.13;5.05;;;9.30;96.30;;;;;;4921889;29;20052;-74
2021/04/19 04:24:39;;;;;;;7.35;6.00;;;9.40;95.70;;;;;;4934613;29;20499;-75
2021/04/19 04:27:08;;;;;;;7.38;5.25;;;9.40;95.70;;;;;;4925160;29;20050;-75
2021/04/19 04:29:40;;;;;;;9.38;5.68;;;9.40;95.40;;;;;;4931075;29;20062;-74
2021/04/19 04:32:26;;;;;;;8.60;5.68;;;9.50;95.50;;;;;;4908377;29;20039;-74
2021/04/19 04:35:06;;;;;;;7.90;5.63;;;9.50;95.20;;;;;;4932459;29;20505;-74
2021/04/19 04:37:39;;;;;;;6.78;5.40;;;9.60;95.00;;;;;;4925063;29;20043;-75
2021/04/19 04:40:20;;;;;;;7.15;4.80;;;9.40;94.90;;;;;;4902080;29;21019;-75
2021/04/19 04:42:53;;;;;;;5.63;4.93;;;9.30;94.80;;;;;;4927391;29;20135;-75
2021/04/19 04:45:23;;;;;;;7.63;5.20;;;9.30;94.70;;;;;;4925407;29;20035;-75
2021/04/19 04:47:58;;;;;;;7.07;5.07;;;9.30;94.70;;;;;;4936900;28;20047;-74
2021/04/19 04:50:31;;;;;;;7.40;5.50;;;9.40;94.80;;;;;;4897294;29;20091;-75
2021/04/19 04:53:05;;;;;;;10.35;6.20;;;9.40;94.60;;;;;;4919451;29;20106;-75
2021/04/19 04:55:36;;;;;;;7.85;5.90;;;9.40;95.00;;;;;;4923227;29;20075;-75
2021/04/19 04:58:06;;;;;;;8.23;5.93;;;9.40;95.30;;;;;;4926718;28;20050;-77
2021/04/19 05:00:39;;;;;;;7.05;5.43;;;9.50;95.20;;;;;;4934520;29;20628;-75
2021/04/19 05:03:10;;;;;;;8.80;5.63;;;9.40;95.40;;;;;;4941278;28;20544;-75
2021/04/19 05:05:40;;;;;;;6.90;5.72;;;9.30;95.30;;;;;;4923841;28;20136;-75
2021/04/19 05:08:11;;;;;;;9.23;6.40;;;9.40;95.60;;;;;;4942430;28;20056;-75
2021/04/19 05:10:39;;;;;;;8.88;6.15;;;9.50;95.00;;;;;;4921145;29;20066;-75
2021/04/19 05:13:15;;;;;;;10.38;6.82;;;9.50;95.20;;;;;;4946617;28;20513;-75
2021/04/19 05:15:46;;;;;;;10.55;6.20;;;9.50;95.20;;;;;;4920271;29;20509;-75
2021/04/19 05:18:14;;;;;;;8.70;6.40;;;9.60;95.20;;;;;;4951951;28;20150;-75
2021/04/19 05:20:43;;;;;;;8.75;6.28;;;9.60;95.10;;;;;;4944815;28;20449;-75
2021/04/19 05:23:12;;;;;;;9.13;7.15;;;9.70;94.70;;;;;;4958822;28;20108;-74
2021/04/19 05:25:40;;;;;;;9.65;6.72;;;9.80;94.40;;;;;;4915511;28;20126;-74
2021/04/19 05:28:09;;;;;;;8.30;6.55;;;9.70;94.20;;;;;;4948348;28;20054;-74
2021/04/19 05:30:36;;;;;;;9.40;6.22;;;9.70;94.50;;;;;;4928181;28;20873;-75
2021/04/19 05:33:06;;;;;;;10.32;6.95;;;9.70;94.70;;;;;;4926274;28;20039;-75
2021/04/19 05:35:35;;;;;;;12.15;6.47;;;9.60;94.80;;;;;;4912355;28;20059;-75
2021/04/19 05:38:06;;;;;;;9.68;5.85;;;9.60;94.80;;;;;;4942963;28;20059;-75
2021/04/19 05:40:35;;;;;;;10.05;6.65;;;9.60;94.80;;;;;;4930263;29;20047;-75
2021/04/19 05:43:05;;;;;;;10.90;6.40;;;9.70;94.60;;;;;;4955647;28;20122;-75
2021/04/19 05:45:36;;;;;;;9.63;6.15;;;9.80;94.40;;;;;;4952984;28;20473;-75
2021/04/19 05:48:08;;;;;;;8.70;6.35;;;9.90;94.50;;;;;;4933187;28;20046;-75
2021/04/19 05:50:36;;;;;;;11.50;6.30;;;9.90;94.50;;;;;;4950648;28;20516;-75
2021/04/19 05:53:05;;;;;;;10.60;6.88;;;10.00;94.50;;;;;;4944312;28;20102;-75
2021/04/19 05:55:34;;;;;;;10.60;6.75;;;10.00;94.40;;;;;;4938400;28;20070;-75
2021/04/19 05:58:11;;;;;;;10.38;6.50;;;10.00;94.40;;;;;;4942382;28;20054;-75
2021/04/19 06:00:46;;;;;;;9.63;6.60;;;10.20;94.10;;;;;;4915597;29;20051;-75
2021/04/19 06:03:22;;;;;;;8.68;6.65;;;10.30;93.90;;;;;;4926580;29;20051;-75
2021/04/19 06:05:54;;;;;;;;;;;10.30;93.70;;;;;;4948798;28;20122;-75
2021/04/19 06:08:28;;;;;;;11.43;7.55;;;10.30;93.60;;;;;;4946727;28;19926;-75
2021/04/19 06:11:23;;;;;;;8.93;6.47;;;10.30;93.60;;;;;;4940108;28;20968;-75
2021/04/19 06:14:04;;;;;;;12.20;6.75;;;10.30;93.50;;;;;;4943199;28;20048;-75
2021/04/19 06:16:39;;;;;;;9.02;7.22;;;10.20;93.60;;;;;;4942873;29;20126;-75
2021/04/19 06:19:11;;;;;;;10.57;7.10;;;10.10;94.40;;;;;;4944740;28;20088;-74
2021/04/19 06:21:39;;;;;;;9.98;7.15;;;10.00;95.20;;;;;;4945034;28;20044;-75
2021/04/19 06:24:08;;;;;;;8.82;6.43;;;10.00;95.00;;;;;;4946416;28;20043;-75
2021/04/19 06:26:37;;;;;;;11.48;7.50;;;10.10;95.20;;;;;;4929084;29;20090;-75
2021/04/19 06:29:08;;;;;;;10.77;6.72;;;10.20;94.60;;;;;;4947535;28;20454;-76
2021/04/19 06:31:43;;;;;;;9.95;7.22;;;10.40;94.10;;;;;;4945756;28;20050;-75
2021/04/19 06:34:13;;;;;;;9.35;7.57;;;10.50;93.90;;;;;;4939817;28;20082;-75
2021/04/19 06:36:42;;;;;;;9.13;7.40;;;10.50;93.80;;;;;;4940032;28;20051;-75
2021/04/19 06:39:12;;;;;;;8.80;6.85;;;10.60;93.70;;;;;;4927315;29;20054;-75
2021/04/19 06:41:40;;;;;;;8.65;7.22;;;10.60;93.70;;;;;;4939177;28;20510;-75
2021/04/19 06:44:08;;;;;;;9.48;7.03;;;10.70;93.70;;;;;;4946002;28;20142;-75
2021/04/19 06:46:38;;;;;;;7.72;6.65;;;10.80;93.70;;;;;;4939591;28;20457;-76
2021/04/19 06:49:08;;;;;;;9.70;7.38;;;10.90;93.60;;;;;;4928692;29;20039;-75
2021/04/19 06:51:37;;;;;;;9.43;7.70;;;10.80;94.10;;;;;;4943611;28;20138;-75
2021/04/19 06:54:06;;;;;;;10.85;7.22;;;10.80;94.50;;;;;;4928833;29;20047;-75
2021/04/19 06:56:36;;;;;;;8.48;6.85;;;11.00;94.30;;;;;;4940648;28;20055;-75
2021/04/19 06:59:08;;;;;;;11.55;7.85;;;11.10;94.00;;;;;;4946117;28;20050;-75
2021/04/19 07:01:37;;;;;;;9.25;7.60;;;11.20;93.80;;;;;;4948032;28;20572;-75
2021/04/19 07:04:10;;;;;;;9.82;7.55;;;11.30;93.40;;;;;;4944559;28;20497;-75
2021/04/19 07:06:39;;;;;;;11.05;7.55;;;11.40;93.40;;;;;;4925787;28;20074;-75
2021/04/19 07:09:17;;;;;;;8.93;7.35;;;11.40;93.30;;;;;;4944064;28;20049;-75
2021/04/19 07:11:50;;;;;;;10.35;7.72;;;11.50;93.70;;;;;;4948015;28;20046;-75
2021/04/19 07:14:18;;;;;;;11.02;7.47;;;11.60;93.60;;;;;;4927334;28;20779;-75
2021/04/19 07:16:47;;;;;;;9.05;7.40;;;11.60;93.30;;;;;;4952148;28;20114;-75
2021/04/19 07:19:17;;;;;;;11.95;7.97;;;11.70;93.10;;;;;;4928711;28;20070;-75
2021/04/19 07:21:47;;;;;;;9.55;7.78;;;11.80;93.10;;;;;;4947594;28;20036;-78
2021/04/19 07:24:15;;;;;;;10.38;8.27;;;11.80;92.90;;;;;;4920771;28;20422;-74
2021/04/19 07:26:48;;;;;;;13.50;8.18;;;11.90;92.70;;;;;;4923500;28;20054;-74
2021/04/19 07:29:16;;;;;;;9.43;7.80;;;12.00;92.50;;;;;;4937572;28;20102;-75
2021/04/19 07:31:48;;;;;;;9.60;8.10;;;12.10;92.60;;;;;;4928269;28;20062;-75
2021/04/19 07:34:18;;;;;;;11.63;8.40;;;12.20;92.30;;;;;;4925745;28;20051;-75
2021/04/19 07:36:52;;;;;;;10.82;7.90;;;12.40;91.60;;;;;;4940286;28;20159;-75
2021/04/19 07:39:22;;;;;;;11.40;8.43;;;12.50;91.20;;;;;;4921946;28;20078;-75
2021/04/19 07:41:51;;;;;;;9.90;7.68;;;12.70;90.90;;;;;;4955395;28;20061;-75
2021/04/19 07:44:40;;;;;;;11.27;8.50;;;12.80;90.50;;;;;;4925550;28;20051;-73
2021/04/19 07:47:24;;;;;;;10.88;8.20;;;12.90;90.20;;;;;;4948494;28;20509;-75
2021/04/19 07:50:17;;;;;;;10.35;7.97;;;13.00;89.70;;;;;;4948536;28;20505;-75
2021/04/19 07:53:05;;;;;;;10.10;7.95;;;13.00;89.50;;;;;;4932468;28;20058;-75
2021/04/19 07:55:35;;;;;;;7.75;6.88;;;13.10;89.50;;;;;;4939033;28;20573;-74
2021/04/19 07:58:07;;;;;;;10.15;7.18;;;13.20;87.40;;;;;;4940351;28;20050;-75
2021/04/19 08:00:36;;;;;;;7.90;6.35;;;13.30;86.90;;;;;;4945387;28;20047;-75
2021/04/19 08:03:06;;;;;;;7.13;5.55;;;13.20;86.50;;;;;;4916055;28;20577;-74
2021/04/19 08:05:37;;;;;;;8.18;5.90;;;13.10;85.60;;;;;;4928803;28;20054;-74
2021/04/19 08:08:07;;;;;;;6.05;5.22;;;13.10;85.40;;;;;;4947222;28;20043;-76
2021/04/19 08:10:37;;;;;;;7.78;5.15;;;13.10;85.00;;;;;;4929461;28;20518;-74
2021/04/19 08:13:11;;;;;;;6.40;5.38;;;13.20;84.70;;;;;;4943189;28;20039;-73
2021/04/19 08:15:40;;;;;;;6.93;5.32;;;13.20;85.00;;;;;;4930750;28;20035;-74
2021/04/19 08:18:10;;;;;;;5.90;5.20;;;13.20;85.10;;;;;;4924454;28;20051;-73
2021/04/19 08:20:47;;;;;;;6.78;5.53;;;13.30;84.10;;;;;;4957882;28;20481;-74
2021/04/19 08:23:17;;;;;;;6.50;5.15;;;13.40;84.00;;;;;;4943202;28;20412;-74
2021/04/19 08:25:48;;;;;;;6.65;5.20;;;13.50;83.90;;;;;;4926524;28;20417;-74
2021/04/19 08:28:18;;;;;;;5.95;5.20;;;13.60;83.80;;;;;;4944192;28;20047;-74
2021/04/19 08:30:48;;;;;;;6.20;5.13;;;13.70;83.50;;;;;;4958327;28;20508;-74
2021/04/19 08:33:16;;;;;;;5.30;4.70;;;13.90;82.80;;;;;;4940885;28;20055;-73
2021/04/19 08:35:45;;;;;;;5.63;5.03;;;14.20;82.10;;;;;;4951700;28;20042;-75
2021/04/19 08:38:17;;;;;;;7.25;5.28;;;14.30;82.00;;;;;;4951725;28;20044;-76
2021/04/19 08:40:48;;;;;;;5.57;4.75;;;14.30;82.00;;;;;;4943070;28;20057;-75
2021/04/19 08:43:20;;;;;;;6.78;4.72;;;14.20;82.10;;;;;;4950152;28;20050;-75
2021/04/19 08:45:48;;;;;;;7.82;5.50;;;14.10;82.10;;;;;;4942809;28;20066;-74
2021/04/19 08:48:16;;;;;;;6.38;5.13;;;14.10;82.10;;;;;;4945501;28;20500;-74
2021/04/19 08:50:47;;;;;;;6.15;4.55;;;14.10;82.50;;;;;;4932564;28;20043;-74
2021/04/19 08:53:17;;;;;;;6.03;4.57;;;14.40;82.20;;;;;;4956389;28;20457;-74
2021/04/19 08:55:48;;;;;;;6.60;5.00;;;14.60;81.60;;;;;;4930072;28;20047;-74
2021/04/19 08:58:18;;;;;;;6.50;4.60;;;14.40;81.00;;;;;;4951246;28;20097;-75
2021/04/19 09:00:48;;;;;;;7.00;4.85;;;14.40;81.30;;;;;;4943981;28;20526;-75
2021/04/19 09:03:17;;;;;;;7.45;5.55;;;14.30;81.90;;;;;;4929734;29;20045;-75
2021/04/19 09:05:46;;;;;;;5.68;5.07;;;14.50;81.50;;;;;;4894394;29;20055;-74
2021/04/19 09:08:16;;;;;;;6.57;5.63;;;14.40;81.50;;;;;;4917733;29;20055;-75
2021/04/19 09:10:50;;;;;;;6.13;5.05;;;14.50;82.20;;;;;;4936303;29;20050;-74
2021/04/19 09:13:30;;;;;;;5.13;4.60;;;14.40;81.60;;;;;;4927465;29;20067;-74
2021/04/19 09:16:17;;;;;;;5.22;4.50;;;14.60;81.70;;;;;;4932640;29;20061;-74
2021/04/19 09:18:46;;;;;;;5.20;4.60;;;14.60;82.10;;;;;;4932283;28;20560;-77
2021/04/19 09:21:32;;;;;;;7.22;5.03;;;14.70;81.50;;;;;;4901624;29;20044;-77
2021/04/19 09:24:00;;;;;;;6.03;5.05;;;14.80;81.00;;;;;;4916409;29;20044;-76
2021/04/19 09:26:51;;;;;;;5.32;4.80;;;14.90;81.30;;;;;;4925958;29;20707;-75
2021/04/19 09:29:44;;;;;;;5.72;4.95;;;14.90;80.70;;;;;;4923276;29;20516;-75
2021/04/19 09:32:25;;;;;;;5.47;4.57;;;15.20;80.40;;;;;;4917204;29;20151;-74
2021/04/19 09:35:03;;;;;;;6.22;4.57;;;15.50;80.20;;;;;;4931185;28;20328;-74
2021/04/19 09:38:02;;;;;;;5.53;4.75;;;16.10;79.00;;;;;;4924766;29;20058;-74
2021/04/19 09:40:44;;;;;;;6.07;4.70;;;16.20;78.30;;;;;;4900965;29;20059;-74
2021/04/19 09:43:13;;;;;;;5.97;4.95;;;16.10;78.40;;;;;;4923547;29;20057;-75
2021/04/19 09:45:53;;;;;;;4.70;4.30;;;16.10;78.30;;;;;;4891577;29;20052;-75
2021/04/19 09:48:56;;;;;;;5.57;4.75;;;16.00;78.00;;;;;;4908502;29;20047;-74
2021/04/19 09:51:27;;;;;;;5.65;4.53;;;15.90;78.20;;;;;;4926695;29;20059;-74
2021/04/19 09:53:59;;;;;;;4.80;4.40;;;16.00;78.40;;;;;;4904291;29;20507;-75
2021/04/19 09:56:29;;;;;;;4.30;3.90;;;16.00;78.40;;;;;;4924195;29;20135;-75
2021/04/19 09:58:58;;;;;;;4.60;4.20;;;15.80;78.70;;;;;;4904434;29;20051;-74
2021/04/19 10:01:28;;;;;;;10.05;4.50;;;15.70;79.10;;;;;;4906738;29;20048;-74
2021/04/19 10:03:57;;;;;;;4.65;3.38;;;15.80;79.70;;;;;;4923552;29;20047;-74
2021/04/19 10:06:38;;;;;;;4.25;3.47;;;15.70;78.90;;;;;;4909331;29;20215;-74
2021/04/19 10:09:10;;;;;;;4.53;3.90;;;15.70;78.70;;;;;;4919445;29;20091;-75
2021/04/19 10:11:41;;;;;;;4.53;4.10;;;15.70;78.80;;;;;;4935439;29;20518;-74
2021/04/19 10:14:13;;;;;;;4.70;4.20;;;15.80;79.10;;;;;;4935902;29;20313;-75
2021/04/19 10:16:42;;;;;;;4.18;3.75;;;15.70;78.70;;;;;;4923897;29;20047;-74
2021/04/19 10:19:10;;;;;;;4.85;3.60;;;15.80;78.70;;;;;;4904122;29;20553;-74
2021/04/19 10:21:39;;;;;;;8.55;6.60;;;15.80;78.90;;;;;;4918934;29;20036;-75
2021/04/19 10:24:15;;;;;;;8.95;5.13;;;15.70;78.00;;;;;;4921886;29;20055;-74
2021/04/19 10:26:43;;;;;;;4.80;4.15;;;15.70;78.20;;;;;;4916653;29;20051;-75
2021/04/19 10:29:18;;;;;;;7.75;4.47;;;15.70;77.80;;;;;;4931992;29;20044;-75
2021/04/19 10:31:50;;;;;;;6.15;4.30;;;15.80;78.30;;;;;;4928514;29;20043;-75
2021/04/19 10:34:19;;;;;;;4.47;3.70;;;16.30;77.30;;;;;;4922353;29;20491;-74
2021/04/19 10:36:50;;;;;;;3.72;3.25;;;16.50;76.50;;;;;;4925338;29;20123;-74
2021/04/19 10:39:20;;;;;;;4.20;3.80;;;16.40;76.10;;;;;;4910375;29;20055;-74
2021/04/19 10:41:52;;;;;;;4.40;3.47;;;16.40;77.00;;;;;;4910679;29;20051;-74
2021/04/19 10:44:34;;;;;;;3.88;3.25;;;16.40;76.30;;;;;;4926633;29;20043;-75
2021/04/19 10:47:02;;;;;;;4.70;3.13;;;16.40;76.00;;;;;;4924570;29;20533;-75
2021/04/19 10:49:30;;;;;;;3.55;3.20;;;16.40;77.00;;;;;;4916440;29;20573;-75
2021/04/19 10:51:59;;;;;;;4.72;3.72;;;16.30;76.00;;;;;;4911915;29;20138;-75
2021/04/19 10:54:29;;;;;;;5.57;3.30;;;16.30;75.10;;;;;;4932822;29;20063;-75
2021/04/19 10:56:58;;;;;;;5.40;3.38;;;16.20;75.60;;;;;;4910852;29;20485;-76
2021/04/19 10:59:28;;;;;;;4.25;3.55;;;16.10;75.70;;;;;;4939067;29;20498;-75
2021/04/19 11:01:58;;;;;;;3.75;3.35;;;16.30;75.80;;;;;;4893656;29;20052;-75
2021/04/19 11:04:27;;;;;;;5.50;3.47;;;16.50;75.70;;;;;;4924832;29;20040;-75
2021/04/19 11:07:21;;;;;;;3.63;3.30;;;16.90;75.70;;;;;;4927386;29;20051;-75
2021/04/19 11:10:06;;;;;;;4.70;3.47;;;16.90;73.70;;;;;;4926501;29;20059;-75
2021/04/19 11:12:34;;;;;;;4.00;3.60;;;16.70;74.90;;;;;;4928783;29;20525;-74
2021/04/19 11:15:09;;;;;;;5.10;2.83;;;16.60;74.40;;;;;;4927595;29;20047;-74
2021/04/19 11:17:37;;;;;;;4.45;3.17;;;16.60;74.80;;;;;;4909004;29;20494;-75
2021/04/19 11:20:20;;;;;;;4.50;3.25;;;16.60;74.80;;;;;;4911017;29;20055;-74
2021/04/19 11:22:48;;;;;;;3.55;2.95;;;16.60;75.80;;;;;;4894228;29;20052;-74
2021/04/19 11:25:18;;;;;;;4.18;3.00;;;16.50;75.60;;;;;;4930904;29;20043;-74
2021/04/19 11:27:50;;;;;;;7.07;4.43;;;16.40;75.70;;;;;;4927334;29;20050;-74
2021/04/19 11:30:24;;;;;;;4.63;3.25;;;16.40;76.30;;;;;;4930235;29;20422;-74
2021/04/19 11:33:02;;;;;;;6.50;3.75;;;16.50;76.10;;;;;;4925867;29;20051;-75
2021/04/19 11:35:36;;;;;;;3.47;3.17;;;17.10;76.20;;;;;;4926709;29;20445;-75
2021/04/19 11:38:06;;;;;;;5.00;3.95;;;17.50;74.30;;;;;;4924826;29;20573;-75
2021/04/19 11:40:36;;;;;;;3.45;2.95;;;17.50;74.40;;;;;;4924411;29;20043;-76
2021/04/19 11:43:25;;;;;;;3.78;3.38;;;17.50;74.20;;;;;;4909051;29;20051;-76
2021/04/19 11:46:03;;;;;;;4.18;3.15;;;18.00;73.60;;;;;;4926149;29;20079;-75
2021/04/19 11:48:32;;;;;;;3.00;2.70;;;17.90;72.40;;;;;;4925003;29;20043;-75
2021/04/19 11:51:00;;;;;;;4.43;3.03;;;18.10;71.60;;;;;;4913482;29;20051;-75
2021/04/19 11:53:30;;;;;;;3.75;3.10;;;18.20;71.40;;;;;;4926530;29;20047;-74
2021/04/19 11:55:59;;;;;;;3.08;2.70;;;18.20;70.80;;;;;;4909075;29;20056;-75
2021/04/19 11:58:34;;;;;;;4.97;2.67;;;18.00;71.40;;;;;;4927177;29;20046;-75
2021/04/19 12:01:04;;;;;;;3.92;3.55;;;17.70;71.40;;;;;;4922163;29;20321;-75
2021/04/19 12:03:36;;;;;;;3.40;3.10;;;17.60;71.80;;;;;;4923884;29;20047;-75
2021/04/19 12:06:06;;;;;;;3.05;2.75;;;17.40;70.90;;;;;;4944514;28;20035;-76
2021/04/19 12:08:35;;;;;;;3.20;2.60;;;17.40;71.70;;;;;;4942026;28;20083;-76
2021/04/19 12:11:05;;;;;;;3.25;2.67;;;17.50;72.30;;;;;;4944919;29;20158;-75
2021/04/19 12:13:33;;;;;;;3.45;3.13;;;17.40;71.80;;;;;;4922647;29;20058;-75
2021/04/19 12:16:01;;;;;;;3.78;2.85;;;17.20;72.70;;;;;;4926770;29;20600;-75
2021/04/19 12:18:33;;;;;;;2.85;2.35;;;17.10;72.60;;;;;;4930494;28;20077;-75
2021/04/19 12:21:02;;;;;;;3.70;2.47;;;16.90;71.80;;;;;;4927554;29;20051;-75
2021/04/19 12:23:31;;;;;;;2.50;2.22;;;16.90;71.90;;;;;;4942362;28;20043;-75
2021/04/19 12:25:59;;;;;;;3.42;2.65;;;16.90;71.90;;;;;;4944747;28;20114;-75
2021/04/19 12:28:44;;;;;;;2.63;2.42;;;16.90;72.80;;;;;;4941133;29;20058;-75
2021/04/19 12:31:14;;;;;;;4.65;3.00;;;16.90;73.10;;;;;;4941788;29;20424;-75
2021/04/19 12:33:44;;;;;;;4.18;3.00;;;16.90;73.10;;;;;;4938173;28;20055;-76
2021/04/19 12:36:13;;;;;;;3.58;3.00;;;16.90;72.60;;;;;;4940873;28;20516;-75
2021/04/19 12:38:41;;;;;;;2.83;2.58;;;16.80;72.50;;;;;;4942560;28;20750;-75
2021/04/19 12:41:10;;;;;;;3.17;2.80;;;16.80;73.10;;;;;;4937971;29;20083;-75
2021/04/19 12:43:39;;;;;;;3.10;2.60;;;17.30;72.30;;;;;;4942449;28;20051;-75
2021/04/19 12:46:07;;;;;;;2.72;2.38;;;17.80;70.90;;;;;;4942364;28;20155;-76
2021/04/19 12:48:42;;;;;;;2.70;2.50;;;17.90;69.90;;;;;;4945136;28;20050;-75
2021/04/19 12:51:13;;;;;;;3.17;2.38;;;17.80;70.80;;;;;;4922167;29;20071;-75
2021/04/19 12:53:42;;;;;;;4.03;2.20;;;17.90;70.40;;;;;;4942872;28;20047;-75
2021/04/19 12:56:10;;;;;;;3.75;2.60;;;17.80;69.50;;;;;;4925006;29;20036;-75
2021/04/19 12:58:41;;;;;;;3.42;2.90;;;17.70;71.10;;;;;;4938447;28;20055;-75
2021/04/19 13:01:11;;;;;;;3.05;2.40;;;17.70;71.20;;;;;;4915886;29;20123;-75
2021/04/19 13:03:39;;;;;;;2.90;2.45;;;17.60;70.20;;;;;;4928210;29;20087;-75
2021/04/19 13:06:09;;;;;;;2.67;2.47;;;17.70;70.50;;;;;;4914818;29;20428;-75
2021/04/19 13:08:37;;;;;;;3.55;2.85;;;17.70;69.70;;;;;;4897255;29;20091;-75
2021/04/19 13:11:06;;;;;;;2.78;2.53;;;17.50;69.70;;;;;;4928051;29;20454;-75
2021/04/19 13:13:35;;;;;;;4.13;3.55;;;17.60;70.00;;;;;;4909121;29;20035;-75
2021/04/19 13:16:04;;;;;;;4.03;3.05;;;18.20;68.60;;;;;;4906876;29;20451;-75